sensor_id;sensor_type;location;lat;lon;timestamp;P1;durP1;ratioP1;P2;durP2;ratioP2
57401;SDS011;43226;51.110;6.998;2023-05-08T00:01:16;4.00;;;3.60;;
57401;SDS011;43226;51.110;6.998;2023-05-08T00:03:41;4.13;;;3.73;;
57401;SDS011;43226;51.110;6.998;2023-05-08T00:06:06;5.70;;;4.00;;
57401;SDS011;43226;51.110;6.998;2023-05-08T00:08:32;3.60;;;3.30;;
57401;SDS011;43226;51.110;6.998;2023-05-08T00:10:57;5.13;;;3.80;;
57401;SDS011;43226;51.110;6.998;2023-05-08T00:13:22;6.33;;;4.23;;
57401;SDS011;43226;51.110;6.998;2023-05-08T00:15:47;3.53;;;3.23;;
57401;SDS011;43226;51.110;6.998;2023-05-08T00:18:13;5.13;;;4.00;;
57401;SDS011;43226;51.110;6.998;2023-05-08T00:20:38;6.00;;;3.70;;
57401;SDS011;43226;51.110;6.998;2023-05-08T00:23:03;4.63;;;3.53;;
57401;SDS011;43226;51.110;6.998;2023-05-08T00:25:28;7.50;;;3.77;;
57401;SDS011;43226;51.110;6.998;2023-05-08T00:27:55;6.43;;;3.50;;
57401;SDS011;43226;51.110;6.998;2023-05-08T00:30:21;4.40;;;3.83;;
57401;SDS011;43226;51.110;6.998;2023-05-08T00:32:46;3.83;;;3.40;;
57401;SDS011;43226;51.110;6.998;2023-05-08T00:35:11;4.67;;;3.27;;
57401;SDS011;43226;51.110;6.998;2023-05-08T00:37:36;6.70;;;3.53;;
57401;SDS011;43226;51.110;6.998;2023-05-08T00:40:04;3.93;;;3.40;;
57401;SDS011;43226;51.110;6.998;2023-05-08T00:42:30;6.30;;;3.70;;
57401;SDS011;43226;51.110;6.998;2023-05-08T00:44:55;3.50;;;3.20;;
57401;SDS011;43226;51.110;6.998;2023-05-08T00:47:20;4.00;;;3.60;;
57401;SDS011;43226;51.110;6.998;2023-05-08T00:49:46;4.20;;;3.70;;
57401;SDS011;43226;51.110;6.998;2023-05-08T00:52:11;6.20;;;3.97;;
57401;SDS011;43226;51.110;6.998;2023-05-08T00:54:36;7.70;;;3.27;;
57401;SDS011;43226;51.110;6.998;2023-05-08T00:57:02;5.90;;;4.23;;
57401;SDS011;43226;51.110;6.998;2023-05-08T00:59:28;12.53;;;3.37;;
57401;SDS011;43226;51.110;6.998;2023-05-08T01:01:53;4.97;;;3.47;;
57401;SDS011;43226;51.110;6.998;2023-05-08T01:04:18;6.50;;;4.43;;
57401;SDS011;43226;51.110;6.998;2023-05-08T01:06:44;6.60;;;3.50;;
57401;SDS011;43226;51.110;6.998;2023-05-08T01:09:10;5.87;;;3.93;;
57401;SDS011;43226;51.110;6.998;2023-05-08T01:11:48;5.57;;;4.20;;
57401;SDS011;43226;51.110;6.998;2023-05-08T01:14:19;3.93;;;3.43;;
57401;SDS011;43226;51.110;6.998;2023-05-08T01:16:50;5.87;;;3.77;;
57401;SDS011;43226;51.110;6.998;2023-05-08T01:29:55;4.40;;;3.50;;
57401;SDS011;43226;51.110;6.998;2023-05-08T01:32:23;5.10;;;4.57;;
57401;SDS011;43226;51.110;6.998;2023-05-08T01:34:54;5.80;;;4.00;;
57401;SDS011;43226;51.110;6.998;2023-05-08T01:37:24;4.27;;;3.70;;
57401;SDS011;43226;51.110;6.998;2023-05-08T01:39:56;5.10;;;3.80;;
57401;SDS011;43226;51.110;6.998;2023-05-08T01:42:32;4.37;;;3.83;;
57401;SDS011;43226;51.110;6.998;2023-05-08T01:45:04;5.30;;;4.27;;
57401;SDS011;43226;51.110;6.998;2023-05-08T01:47:32;5.70;;;4.13;;
57401;SDS011;43226;51.110;6.998;2023-05-08T01:50:10;7.37;;;4.20;;
57401;SDS011;43226;51.110;6.998;2023-05-08T01:52:41;7.23;;;4.40;;
57401;SDS011;43226;51.110;6.998;2023-05-08T01:55:09;6.97;;;4.90;;
57401;SDS011;43226;51.110;6.998;2023-05-08T01:57:36;5.20;;;4.00;;
57401;SDS011;43226;51.110;6.998;2023-05-08T02:00:02;5.03;;;4.20;;
57401;SDS011;43226;51.110;6.998;2023-05-08T02:02:29;5.50;;;4.63;;
57401;SDS011;43226;51.110;6.998;2023-05-08T02:04:55;7.07;;;4.43;;
57401;SDS011;43226;51.110;6.998;2023-05-08T02:07:21;6.03;;;4.77;;
57401;SDS011;43226;51.110;6.998;2023-05-08T02:09:46;6.17;;;4.90;;
57401;SDS011;43226;51.110;6.998;2023-05-08T02:12:12;5.47;;;4.40;;
57401;SDS011;43226;51.110;6.998;2023-05-08T02:14:38;6.37;;;4.80;;
57401;SDS011;43226;51.110;6.998;2023-05-08T02:17:04;6.23;;;4.77;;
57401;SDS011;43226;51.110;6.998;2023-05-08T02:19:30;7.73;;;4.80;;
57401;SDS011;43226;51.110;6.998;2023-05-08T02:21:56;7.17;;;5.00;;
57401;SDS011;43226;51.110;6.998;2023-05-08T02:24:22;6.97;;;4.70;;
57401;SDS011;43226;51.110;6.998;2023-05-08T02:26:48;5.40;;;4.40;;
57401;SDS011;43226;51.110;6.998;2023-05-08T02:29:14;5.93;;;3.87;;
57401;SDS011;43226;51.110;6.998;2023-05-08T02:31:39;5.50;;;4.40;;
57401;SDS011;43226;51.110;6.998;2023-05-08T02:34:05;7.33;;;4.77;;
57401;SDS011;43226;51.110;6.998;2023-05-08T02:36:32;6.27;;;5.17;;
57401;SDS011;43226;51.110;6.998;2023-05-08T02:38:58;6.67;;;4.53;;
57401;SDS011;43226;51.110;6.998;2023-05-08T02:41:24;5.33;;;4.10;;
57401;SDS011;43226;51.110;6.998;2023-05-08T02:43:52;9.57;;;5.17;;
57401;SDS011;43226;51.110;6.998;2023-05-08T02:46:18;8.13;;;5.37;;
57401;SDS011;43226;51.110;6.998;2023-05-08T02:51:17;7.90;;;4.40;;
57401;SDS011;43226;51.110;6.998;2023-05-08T02:53:55;8.90;;;5.70;;
57401;SDS011;43226;51.110;6.998;2023-05-08T02:56:38;6.37;;;5.27;;
57401;SDS011;43226;51.110;6.998;2023-05-08T02:59:15;7.33;;;5.20;;
57401;SDS011;43226;51.110;6.998;2023-05-08T03:04:40;6.40;;;4.93;;
57401;SDS011;43226;51.110;6.998;2023-05-08T03:07:09;7.33;;;4.80;;
57401;SDS011;43226;51.110;6.998;2023-05-08T03:09:39;7.60;;;4.80;;
57401;SDS011;43226;51.110;6.998;2023-05-08T03:12:07;6.37;;;4.97;;
57401;SDS011;43226;51.110;6.998;2023-05-08T03:14:34;6.13;;;5.13;;
57401;SDS011;43226;51.110;6.998;2023-05-08T03:17:01;6.27;;;4.93;;
57401;SDS011;43226;51.110;6.998;2023-05-08T03:19:28;6.00;;;4.60;;
57401;SDS011;43226;51.110;6.998;2023-05-08T03:21:55;9.03;;;6.07;;
57401;SDS011;43226;51.110;6.998;2023-05-08T03:24:21;6.70;;;5.43;;
57401;SDS011;43226;51.110;6.998;2023-05-08T03:26:47;6.50;;;5.77;;
57401;SDS011;43226;51.110;6.998;2023-05-08T03:29:13;6.23;;;4.83;;
57401;SDS011;43226;51.110;6.998;2023-05-08T03:31:38;10.67;;;5.50;;
57401;SDS011;43226;51.110;6.998;2023-05-08T03:34:04;12.30;;;5.37;;
57401;SDS011;43226;51.110;6.998;2023-05-08T03:36:30;7.00;;;4.80;;
57401;SDS011;43226;51.110;6.998;2023-05-08T03:38:55;6.47;;;4.77;;
57401;SDS011;43226;51.110;6.998;2023-05-08T03:41:21;7.83;;;5.83;;
57401;SDS011;43226;51.110;6.998;2023-05-08T03:43:47;8.77;;;6.10;;
57401;SDS011;43226;51.110;6.998;2023-05-08T03:46:13;13.13;;;6.03;;
57401;SDS011;43226;51.110;6.998;2023-05-08T03:48:38;8.47;;;6.00;;
57401;SDS011;43226;51.110;6.998;2023-05-08T03:51:03;8.30;;;6.80;;
57401;SDS011;43226;51.110;6.998;2023-05-08T03:53:29;11.30;;;7.20;;
57401;SDS011;43226;51.110;6.998;2023-05-08T03:55:58;9.50;;;6.93;;
57401;SDS011;43226;51.110;6.998;2023-05-08T03:58:25;10.40;;;7.60;;
57401;SDS011;43226;51.110;6.998;2023-05-08T04:08:33;10.83;;;6.50;;
57401;SDS011;43226;51.110;6.998;2023-05-08T04:11:24;9.30;;;6.90;;
57401;SDS011;43226;51.110;6.998;2023-05-08T04:13:53;12.43;;;7.13;;
57401;SDS011;43226;51.110;6.998;2023-05-08T04:16:25;10.67;;;7.07;;
57401;SDS011;43226;51.110;6.998;2023-05-08T04:18:53;14.13;;;7.10;;
57401;SDS011;43226;51.110;6.998;2023-05-08T04:21:22;11.33;;;7.17;;
57401;SDS011;43226;51.110;6.998;2023-05-08T04:23:49;10.07;;;6.40;;
57401;SDS011;43226;51.110;6.998;2023-05-08T04:26:15;11.13;;;8.27;;
57401;SDS011;43226;51.110;6.998;2023-05-08T04:28:41;9.20;;;6.23;;
57401;SDS011;43226;51.110;6.998;2023-05-08T04:31:06;12.33;;;7.30;;
57401;SDS011;43226;51.110;6.998;2023-05-08T04:33:32;11.80;;;6.43;;
57401;SDS011;43226;51.110;6.998;2023-05-08T04:35:59;9.17;;;6.80;;
57401;SDS011;43226;51.110;6.998;2023-05-08T04:38:25;11.80;;;7.67;;
57401;SDS011;43226;51.110;6.998;2023-05-08T04:40:50;12.93;;;7.47;;
57401;SDS011;43226;51.110;6.998;2023-05-08T04:43:15;11.27;;;7.37;;
57401;SDS011;43226;51.110;6.998;2023-05-08T04:45:40;12.07;;;7.70;;
57401;SDS011;43226;51.110;6.998;2023-05-08T04:48:05;11.75;;;7.32;;
57401;SDS011;43226;51.110;6.998;2023-05-08T04:50:31;12.27;;;7.30;;
57401;SDS011;43226;51.110;6.998;2023-05-08T04:52:56;16.33;;;7.53;;
57401;SDS011;43226;51.110;6.998;2023-05-08T04:55:21;9.20;;;6.93;;
57401;SDS011;43226;51.110;6.998;2023-05-08T04:57:46;10.20;;;7.77;;
57401;SDS011;43226;51.110;6.998;2023-05-08T05:00:12;19.73;;;8.10;;
57401;SDS011;43226;51.110;6.998;2023-05-08T05:02:37;9.00;;;7.17;;
57401;SDS011;43226;51.110;6.998;2023-05-08T05:05:02;10.38;;;7.03;;
57401;SDS011;43226;51.110;6.998;2023-05-08T05:07:27;9.93;;;7.27;;
57401;SDS011;43226;51.110;6.998;2023-05-08T05:09:53;23.00;;;8.00;;
57401;SDS011;43226;51.110;6.998;2023-05-08T05:12:18;11.52;;;7.95;;
57401;SDS011;43226;51.110;6.998;2023-05-08T05:14:43;18.03;;;8.03;;
57401;SDS011;43226;51.110;6.998;2023-05-08T05:17:08;10.60;;;6.83;;
57401;SDS011;43226;51.110;6.998;2023-05-08T05:19:33;34.50;;;7.67;;
57401;SDS011;43226;51.110;6.998;2023-05-08T05:21:59;11.07;;;7.43;;
57401;SDS011;43226;51.110;6.998;2023-05-08T05:24:24;9.20;;;5.93;;
57401;SDS011;43226;51.110;6.998;2023-05-08T05:26:49;12.30;;;8.00;;
57401;SDS011;43226;51.110;6.998;2023-05-08T05:29:14;10.23;;;6.80;;
57401;SDS011;43226;51.110;6.998;2023-05-08T05:31:41;11.17;;;7.27;;
57401;SDS011;43226;51.110;6.998;2023-05-08T05:34:06;8.53;;;6.33;;
57401;SDS011;43226;51.110;6.998;2023-05-08T05:36:32;12.23;;;7.23;;
57401;SDS011;43226;51.110;6.998;2023-05-08T05:38:57;12.77;;;8.30;;
57401;SDS011;43226;51.110;6.998;2023-05-08T05:41:22;10.10;;;7.57;;
57401;SDS011;43226;51.110;6.998;2023-05-08T05:43:48;12.70;;;8.03;;
57401;SDS011;43226;51.110;6.998;2023-05-08T05:46:13;10.57;;;7.20;;
57401;SDS011;43226;51.110;6.998;2023-05-08T05:48:38;9.57;;;7.03;;
57401;SDS011;43226;51.110;6.998;2023-05-08T05:51:03;9.13;;;6.83;;
57401;SDS011;43226;51.110;6.998;2023-05-08T05:53:29;9.70;;;6.97;;
57401;SDS011;43226;51.110;6.998;2023-05-08T05:55:54;13.30;;;7.70;;
57401;SDS011;43226;51.110;6.998;2023-05-08T05:58:19;9.87;;;8.10;;
57401;SDS011;43226;51.110;6.998;2023-05-08T06:00:45;12.33;;;8.23;;
57401;SDS011;43226;51.110;6.998;2023-05-08T06:03:11;12.30;;;7.83;;
57401;SDS011;43226;51.110;6.998;2023-05-08T06:05:36;11.67;;;7.33;;
57401;SDS011;43226;51.110;6.998;2023-05-08T06:08:02;11.50;;;8.20;;
57401;SDS011;43226;51.110;6.998;2023-05-08T06:10:27;9.87;;;7.60;;
57401;SDS011;43226;51.110;6.998;2023-05-08T06:12:52;12.03;;;7.40;;
57401;SDS011;43226;51.110;6.998;2023-05-08T06:15:18;11.00;;;7.93;;
57401;SDS011;43226;51.110;6.998;2023-05-08T06:17:43;11.40;;;8.17;;
57401;SDS011;43226;51.110;6.998;2023-05-08T06:20:08;7.47;;;6.40;;
57401;SDS011;43226;51.110;6.998;2023-05-08T06:22:34;9.23;;;6.67;;
57401;SDS011;43226;51.110;6.998;2023-05-08T06:25:01;15.27;;;7.07;;
57401;SDS011;43226;51.110;6.998;2023-05-08T06:27:26;10.03;;;7.13;;
57401;SDS011;43226;51.110;6.998;2023-05-08T06:29:51;11.10;;;7.30;;
57401;SDS011;43226;51.110;6.998;2023-05-08T06:32:20;11.97;;;8.30;;
57401;SDS011;43226;51.110;6.998;2023-05-08T06:34:45;10.53;;;7.50;;
57401;SDS011;43226;51.110;6.998;2023-05-08T06:37:10;12.13;;;7.23;;
57401;SDS011;43226;51.110;6.998;2023-05-08T06:39:36;11.60;;;8.40;;
57401;SDS011;43226;51.110;6.998;2023-05-08T06:42:01;10.00;;;7.10;;
57401;SDS011;43226;51.110;6.998;2023-05-08T06:44:26;8.73;;;7.13;;
57401;SDS011;43226;51.110;6.998;2023-05-08T06:46:51;10.63;;;7.03;;
57401;SDS011;43226;51.110;6.998;2023-05-08T06:49:16;14.20;;;6.63;;
57401;SDS011;43226;51.110;6.998;2023-05-08T06:51:42;10.57;;;7.60;;
57401;SDS011;43226;51.110;6.998;2023-05-08T06:54:07;10.57;;;7.53;;
57401;SDS011;43226;51.110;6.998;2023-05-08T06:56:33;9.00;;;6.90;;
57401;SDS011;43226;51.110;6.998;2023-05-08T06:58:58;9.03;;;6.60;;
57401;SDS011;43226;51.110;6.998;2023-05-08T07:01:23;8.60;;;7.23;;
57401;SDS011;43226;51.110;6.998;2023-05-08T07:03:48;8.07;;;5.50;;
57401;SDS011;43226;51.110;6.998;2023-05-08T07:06:13;8.70;;;6.90;;
57401;SDS011;43226;51.110;6.998;2023-05-08T07:08:39;10.00;;;6.57;;
57401;SDS011;43226;51.110;6.998;2023-05-08T07:11:04;9.77;;;6.73;;
57401;SDS011;43226;51.110;6.998;2023-05-08T07:13:29;8.87;;;6.90;;
57401;SDS011;43226;51.110;6.998;2023-05-08T07:15:55;9.97;;;7.67;;
57401;SDS011;43226;51.110;6.998;2023-05-08T07:18:20;9.60;;;7.10;;
57401;SDS011;43226;51.110;6.998;2023-05-08T07:20:46;9.03;;;6.90;;
57401;SDS011;43226;51.110;6.998;2023-05-08T07:23:11;8.30;;;6.87;;
57401;SDS011;43226;51.110;6.998;2023-05-08T07:25:36;7.03;;;6.10;;
57401;SDS011;43226;51.110;6.998;2023-05-08T07:28:01;8.97;;;6.10;;
57401;SDS011;43226;51.110;6.998;2023-05-08T07:30:27;8.10;;;6.20;;
57401;SDS011;43226;51.110;6.998;2023-05-08T07:32:52;6.43;;;5.27;;
57401;SDS011;43226;51.110;6.998;2023-05-08T07:35:17;7.60;;;5.77;;
57401;SDS011;43226;51.110;6.998;2023-05-08T07:37:43;8.30;;;5.63;;
57401;SDS011;43226;51.110;6.998;2023-05-08T07:40:08;6.93;;;5.07;;
57401;SDS011;43226;51.110;6.998;2023-05-08T07:42:38;8.17;;;5.67;;
57401;SDS011;43226;51.110;6.998;2023-05-08T07:45:04;9.50;;;5.83;;
57401;SDS011;43226;51.110;6.998;2023-05-08T07:47:29;9.87;;;6.03;;
57401;SDS011;43226;51.110;6.998;2023-05-08T07:49:54;6.87;;;5.37;;
57401;SDS011;43226;51.110;6.998;2023-05-08T07:52:19;8.50;;;5.70;;
57401;SDS011;43226;51.110;6.998;2023-05-08T07:54:45;6.30;;;5.37;;
57401;SDS011;43226;51.110;6.998;2023-05-08T07:57:10;8.43;;;5.50;;
57401;SDS011;43226;51.110;6.998;2023-05-08T07:59:35;8.47;;;5.70;;
57401;SDS011;43226;51.110;6.998;2023-05-08T08:02:00;8.03;;;5.67;;
57401;SDS011;43226;51.110;6.998;2023-05-08T08:04:25;6.60;;;5.67;;
57401;SDS011;43226;51.110;6.998;2023-05-08T08:06:51;7.60;;;5.10;;
57401;SDS011;43226;51.110;6.998;2023-05-08T08:09:16;6.30;;;4.50;;
57401;SDS011;43226;51.110;6.998;2023-05-08T08:11:41;7.73;;;5.50;;
57401;SDS011;43226;51.110;6.998;2023-05-08T08:14:07;7.20;;;5.43;;
57401;SDS011;43226;51.110;6.998;2023-05-08T08:16:32;6.60;;;5.33;;
57401;SDS011;43226;51.110;6.998;2023-05-08T08:18:57;9.40;;;6.77;;
57401;SDS011;43226;51.110;6.998;2023-05-08T08:21:23;7.70;;;6.17;;
57401;SDS011;43226;51.110;6.998;2023-05-08T08:23:48;9.60;;;6.73;;
57401;SDS011;43226;51.110;6.998;2023-05-08T08:26:13;5.70;;;5.10;;
57401;SDS011;43226;51.110;6.998;2023-05-08T08:28:39;6.80;;;5.60;;
57401;SDS011;43226;51.110;6.998;2023-05-08T08:31:04;7.60;;;6.20;;
57401;SDS011;43226;51.110;6.998;2023-05-08T08:33:29;7.13;;;5.20;;
57401;SDS011;43226;51.110;6.998;2023-05-08T08:35:54;10.73;;;5.73;;
57401;SDS011;43226;51.110;6.998;2023-05-08T08:38:19;8.40;;;5.57;;
57401;SDS011;43226;51.110;6.998;2023-05-08T08:40:45;7.73;;;6.30;;
57401;SDS011;43226;51.110;6.998;2023-05-08T08:43:10;6.00;;;5.30;;
57401;SDS011;43226;51.110;6.998;2023-05-08T08:45:36;7.20;;;5.53;;
57401;SDS011;43226;51.110;6.998;2023-05-08T08:48:01;6.17;;;5.13;;
57401;SDS011;43226;51.110;6.998;2023-05-08T08:50:30;5.20;;;4.40;;
57401;SDS011;43226;51.110;6.998;2023-05-08T08:55:43;7.57;;;5.10;;
57401;SDS011;43226;51.110;6.998;2023-05-08T09:00:35;6.40;;;4.95;;
57401;SDS011;43226;51.110;6.998;2023-05-08T09:03:01;7.07;;;5.73;;
57401;SDS011;43226;51.110;6.998;2023-05-08T09:05:27;8.80;;;5.83;;
57401;SDS011;43226;51.110;6.998;2023-05-08T09:07:53;7.83;;;5.87;;
57401;SDS011;43226;51.110;6.998;2023-05-08T09:10:18;7.83;;;5.60;;
57401;SDS011;43226;51.110;6.998;2023-05-08T09:12:43;5.93;;;5.33;;
57401;SDS011;43226;51.110;6.998;2023-05-08T09:15:09;7.27;;;5.20;;
57401;SDS011;43226;51.110;6.998;2023-05-08T09:17:35;6.73;;;5.40;;
57401;SDS011;43226;51.110;6.998;2023-05-08T09:20:00;6.63;;;5.30;;
57401;SDS011;43226;51.110;6.998;2023-05-08T09:22:25;6.20;;;5.13;;
57401;SDS011;43226;51.110;6.998;2023-05-08T09:27:20;6.73;;;5.23;;
57401;SDS011;43226;51.110;6.998;2023-05-08T09:29:57;7.37;;;6.30;;
57401;SDS011;43226;51.110;6.998;2023-05-08T09:32:23;9.10;;;6.10;;
57401;SDS011;43226;51.110;6.998;2023-05-08T09:34:52;6.20;;;5.53;;
57401;SDS011;43226;51.110;6.998;2023-05-08T09:37:17;7.47;;;6.13;;
57401;SDS011;43226;51.110;6.998;2023-05-08T09:39:42;5.83;;;4.70;;
57401;SDS011;43226;51.110;6.998;2023-05-08T09:42:09;7.10;;;5.50;;
57401;SDS011;43226;51.110;6.998;2023-05-08T09:44:51;6.57;;;5.33;;
57401;SDS011;43226;51.110;6.998;2023-05-08T09:47:18;6.13;;;4.83;;
57401;SDS011;43226;51.110;6.998;2023-05-08T09:52:29;7.87;;;5.33;;
57401;SDS011;43226;51.110;6.998;2023-05-08T09:55:07;6.50;;;5.07;;
57401;SDS011;43226;51.110;6.998;2023-05-08T09:57:33;7.70;;;5.60;;
57401;SDS011;43226;51.110;6.998;2023-05-08T10:00:11;7.83;;;5.67;;
57401;SDS011;43226;51.110;6.998;2023-05-08T10:02:37;6.50;;;5.90;;
57401;SDS011;43226;51.110;6.998;2023-05-08T10:05:02;9.30;;;6.13;;
57401;SDS011;43226;51.110;6.998;2023-05-08T10:07:30;7.83;;;5.90;;
57401;SDS011;43226;51.110;6.998;2023-05-08T10:09:56;13.90;;;6.30;;
57401;SDS011;43226;51.110;6.998;2023-05-08T10:12:21;6.37;;;5.23;;
57401;SDS011;43226;51.110;6.998;2023-05-08T10:14:47;6.53;;;5.53;;
57401;SDS011;43226;51.110;6.998;2023-05-08T10:17:12;12.60;;;6.10;;
57401;SDS011;43226;51.110;6.998;2023-05-08T10:19:39;11.60;;;6.50;;
57401;SDS011;43226;51.110;6.998;2023-05-08T10:22:08;8.00;;;5.60;;
57401;SDS011;43226;51.110;6.998;2023-05-08T10:24:35;9.07;;;6.03;;
57401;SDS011;43226;51.110;6.998;2023-05-08T10:29:32;8.57;;;6.30;;
57401;SDS011;43226;51.110;6.998;2023-05-08T10:31:57;10.60;;;7.50;;
57401;SDS011;43226;51.110;6.998;2023-05-08T10:34:22;6.60;;;5.80;;
57401;SDS011;43226;51.110;6.998;2023-05-08T10:36:50;10.47;;;5.93;;
57401;SDS011;43226;51.110;6.998;2023-05-08T10:39:17;7.43;;;6.10;;
57401;SDS011;43226;51.110;6.998;2023-05-08T10:41:42;7.63;;;6.00;;
57401;SDS011;43226;51.110;6.998;2023-05-08T10:44:08;8.93;;;5.90;;
57401;SDS011;43226;51.110;6.998;2023-05-08T10:46:38;7.50;;;5.50;;
57401;SDS011;43226;51.110;6.998;2023-05-08T10:49:19;7.70;;;6.40;;
57401;SDS011;43226;51.110;6.998;2023-05-08T10:51:49;7.53;;;6.67;;
57401;SDS011;43226;51.110;6.998;2023-05-08T10:54:24;7.23;;;5.63;;
57401;SDS011;43226;51.110;6.998;2023-05-08T10:56:50;8.60;;;6.00;;
57401;SDS011;43226;51.110;6.998;2023-05-08T10:59:18;8.10;;;6.53;;
57401;SDS011;43226;51.110;6.998;2023-05-08T11:01:47;8.20;;;6.40;;
57401;SDS011;43226;51.110;6.998;2023-05-08T11:04:20;8.67;;;6.47;;
57401;SDS011;43226;51.110;6.998;2023-05-08T11:06:46;7.20;;;5.10;;
57401;SDS011;43226;51.110;6.998;2023-05-08T11:09:18;6.53;;;5.30;;
57401;SDS011;43226;51.110;6.998;2023-05-08T11:11:44;8.33;;;6.10;;
57401;SDS011;43226;51.110;6.998;2023-05-08T11:14:14;9.57;;;5.27;;
57401;SDS011;43226;51.110;6.998;2023-05-08T11:19:17;7.40;;;5.73;;
57401;SDS011;43226;51.110;6.998;2023-05-08T11:24:34;5.00;;;4.30;;
57401;SDS011;43226;51.110;6.998;2023-05-08T11:27:00;8.23;;;4.70;;
57401;SDS011;43226;51.110;6.998;2023-05-08T11:29:25;5.90;;;4.23;;
57401;SDS011;43226;51.110;6.998;2023-05-08T11:31:51;4.57;;;4.03;;
57401;SDS011;43226;51.110;6.998;2023-05-08T11:37:00;5.60;;;4.20;;
57401;SDS011;43226;51.110;6.998;2023-05-08T11:39:28;5.50;;;4.80;;
57401;SDS011;43226;51.110;6.998;2023-05-08T11:41:54;5.20;;;3.90;;
57401;SDS011;43226;51.110;6.998;2023-05-08T11:44:19;6.00;;;4.77;;
57401;SDS011;43226;51.110;6.998;2023-05-08T11:46:48;6.23;;;3.83;;
57401;SDS011;43226;51.110;6.998;2023-05-08T11:49:15;4.27;;;3.87;;
57401;SDS011;43226;51.110;6.998;2023-05-08T11:51:41;3.83;;;3.27;;
57401;SDS011;43226;51.110;6.998;2023-05-08T11:54:09;4.17;;;3.77;;
57401;SDS011;43226;51.110;6.998;2023-05-08T11:56:34;4.80;;;3.63;;
57401;SDS011;43226;51.110;6.998;2023-05-08T11:59:02;4.80;;;3.90;;
57401;SDS011;43226;51.110;6.998;2023-05-08T12:01:28;4.97;;;3.97;;
57401;SDS011;43226;51.110;6.998;2023-05-08T12:04:04;7.10;;;3.80;;
57401;SDS011;43226;51.110;6.998;2023-05-08T12:06:30;5.00;;;3.80;;
57401;SDS011;43226;51.110;6.998;2023-05-08T12:08:56;5.30;;;4.13;;
57401;SDS011;43226;51.110;6.998;2023-05-08T12:11:24;5.77;;;3.60;;
57401;SDS011;43226;51.110;6.998;2023-05-08T12:13:50;4.03;;;3.63;;
57401;SDS011;43226;51.110;6.998;2023-05-08T12:16:15;5.20;;;3.83;;
57401;SDS011;43226;51.110;6.998;2023-05-08T12:18:41;4.60;;;3.63;;
57401;SDS011;43226;51.110;6.998;2023-05-08T12:21:07;4.60;;;3.00;;
57401;SDS011;43226;51.110;6.998;2023-05-08T12:23:33;3.20;;;2.90;;
57401;SDS011;43226;51.110;6.998;2023-05-08T12:25:59;5.63;;;4.00;;
57401;SDS011;43226;51.110;6.998;2023-05-08T12:28:25;5.23;;;4.20;;
57401;SDS011;43226;51.110;6.998;2023-05-08T12:30:51;6.43;;;4.10;;
57401;SDS011;43226;51.110;6.998;2023-05-08T12:33:16;7.63;;;4.10;;
57401;SDS011;43226;51.110;6.998;2023-05-08T12:35:42;7.43;;;5.30;;
57401;SDS011;43226;51.110;6.998;2023-05-08T12:38:08;8.77;;;4.53;;
57401;SDS011;43226;51.110;6.998;2023-05-08T12:40:38;5.73;;;4.27;;
57401;SDS011;43226;51.110;6.998;2023-05-08T12:43:04;6.77;;;4.87;;
57401;SDS011;43226;51.110;6.998;2023-05-08T12:45:29;6.00;;;5.07;;
57401;SDS011;43226;51.110;6.998;2023-05-08T12:47:58;6.97;;;4.77;;
57401;SDS011;43226;51.110;6.998;2023-05-08T12:50:23;7.50;;;4.47;;
57401;SDS011;43226;51.110;6.998;2023-05-08T12:52:51;5.50;;;4.77;;
57401;SDS011;43226;51.110;6.998;2023-05-08T12:55:21;7.03;;;5.50;;
57401;SDS011;43226;51.110;6.998;2023-05-08T12:57:46;7.03;;;4.93;;
57401;SDS011;43226;51.110;6.998;2023-05-08T13:00:13;5.30;;;4.47;;
57401;SDS011;43226;51.110;6.998;2023-05-08T13:02:39;7.00;;;5.70;;
57401;SDS011;43226;51.110;6.998;2023-05-08T13:05:04;9.37;;;6.00;;
57401;SDS011;43226;51.110;6.998;2023-05-08T13:07:32;9.00;;;6.00;;
57401;SDS011;43226;51.110;6.998;2023-05-08T13:09:59;5.90;;;5.03;;
57401;SDS011;43226;51.110;6.998;2023-05-08T13:12:28;7.93;;;6.23;;
57401;SDS011;43226;51.110;6.998;2023-05-08T13:14:53;6.97;;;5.77;;
57401;SDS011;43226;51.110;6.998;2023-05-08T13:17:19;5.60;;;4.70;;
57401;SDS011;43226;51.110;6.998;2023-05-08T13:19:44;7.97;;;5.40;;
57401;SDS011;43226;51.110;6.998;2023-05-08T13:22:09;6.03;;;5.37;;
57401;SDS011;43226;51.110;6.998;2023-05-08T13:24:34;4.77;;;4.27;;
57401;SDS011;43226;51.110;6.998;2023-05-08T13:27:00;7.47;;;4.87;;
57401;SDS011;43226;51.110;6.998;2023-05-08T13:29:25;5.10;;;4.60;;
57401;SDS011;43226;51.110;6.998;2023-05-08T13:31:51;5.77;;;3.70;;
57401;SDS011;43226;51.110;6.998;2023-05-08T13:34:16;3.80;;;3.10;;
57401;SDS011;43226;51.110;6.998;2023-05-08T13:36:41;7.77;;;3.40;;
57401;SDS011;43226;51.110;6.998;2023-05-08T13:39:06;4.10;;;3.33;;
57401;SDS011;43226;51.110;6.998;2023-05-08T13:41:31;3.43;;;3.00;;
57401;SDS011;43226;51.110;6.998;2023-05-08T13:43:56;3.17;;;2.87;;
57401;SDS011;43226;51.110;6.998;2023-05-08T13:46:22;4.30;;;3.40;;
57401;SDS011;43226;51.110;6.998;2023-05-08T13:48:47;6.37;;;3.17;;
57401;SDS011;43226;51.110;6.998;2023-05-08T13:51:12;3.60;;;3.10;;
57401;SDS011;43226;51.110;6.998;2023-05-08T13:53:38;3.00;;;2.70;;
57401;SDS011;43226;51.110;6.998;2023-05-08T13:56:03;4.97;;;3.50;;
57401;SDS011;43226;51.110;6.998;2023-05-08T13:58:29;3.87;;;3.57;;
57401;SDS011;43226;51.110;6.998;2023-05-08T14:00:54;4.97;;;4.10;;
57401;SDS011;43226;51.110;6.998;2023-05-08T14:03:19;5.73;;;4.23;;
57401;SDS011;43226;51.110;6.998;2023-05-08T14:05:44;4.40;;;4.00;;
57401;SDS011;43226;51.110;6.998;2023-05-08T14:08:09;4.80;;;4.40;;
57401;SDS011;43226;51.110;6.998;2023-05-08T14:10:35;5.50;;;4.80;;
57401;SDS011;43226;51.110;6.998;2023-05-08T14:13:00;6.97;;;5.40;;
57401;SDS011;43226;51.110;6.998;2023-05-08T14:15:25;7.37;;;5.40;;
57401;SDS011;43226;51.110;6.998;2023-05-08T14:17:50;6.37;;;5.67;;
57401;SDS011;43226;51.110;6.998;2023-05-08T14:20:16;6.03;;;4.97;;
57401;SDS011;43226;51.110;6.998;2023-05-08T14:22:41;7.00;;;5.13;;
57401;SDS011;43226;51.110;6.998;2023-05-08T14:25:06;7.10;;;5.70;;
57401;SDS011;43226;51.110;6.998;2023-05-08T14:27:32;5.50;;;4.90;;
57401;SDS011;43226;51.110;6.998;2023-05-08T14:29:57;6.60;;;4.93;;
57401;SDS011;43226;51.110;6.998;2023-05-08T14:32:22;8.30;;;6.20;;
57401;SDS011;43226;51.110;6.998;2023-05-08T14:34:47;8.63;;;5.95;;
57401;SDS011;43226;51.110;6.998;2023-05-08T14:37:13;8.10;;;6.50;;
57401;SDS011;43226;51.110;6.998;2023-05-08T14:39:38;9.10;;;6.23;;
57401;SDS011;43226;51.110;6.998;2023-05-08T14:42:03;7.87;;;5.73;;
57401;SDS011;43226;51.110;6.998;2023-05-08T14:44:28;7.90;;;6.40;;
57401;SDS011;43226;51.110;6.998;2023-05-08T14:46:54;7.70;;;5.80;;
57401;SDS011;43226;51.110;6.998;2023-05-08T14:49:19;12.37;;;6.93;;
57401;SDS011;43226;51.110;6.998;2023-05-08T14:51:44;8.63;;;6.43;;
57401;SDS011;43226;51.110;6.998;2023-05-08T14:54:09;8.80;;;7.30;;
57401;SDS011;43226;51.110;6.998;2023-05-08T14:56:34;11.33;;;7.50;;
57401;SDS011;43226;51.110;6.998;2023-05-08T14:58:59;8.20;;;6.30;;
57401;SDS011;43226;51.110;6.998;2023-05-08T15:01:25;8.80;;;7.10;;
57401;SDS011;43226;51.110;6.998;2023-05-08T15:03:50;12.23;;;6.60;;
57401;SDS011;43226;51.110;6.998;2023-05-08T15:06:20;8.60;;;6.60;;
57401;SDS011;43226;51.110;6.998;2023-05-08T15:08:46;11.50;;;6.50;;
57401;SDS011;43226;51.110;6.998;2023-05-08T15:11:11;13.73;;;8.23;;
57401;SDS011;43226;51.110;6.998;2023-05-08T15:13:37;9.17;;;6.80;;
57401;SDS011;43226;51.110;6.998;2023-05-08T15:16:02;9.07;;;7.43;;
57401;SDS011;43226;51.110;6.998;2023-05-08T15:18:27;9.23;;;7.33;;
57401;SDS011;43226;51.110;6.998;2023-05-08T15:20:53;10.73;;;7.17;;
57401;SDS011;43226;51.110;6.998;2023-05-08T15:23:18;8.97;;;6.77;;
57401;SDS011;43226;51.110;6.998;2023-05-08T15:25:44;9.73;;;6.33;;